sensor_id;sensor_type;location;lat;lon;timestamp;P1;durP1;ratioP1;P2;durP2;ratioP2
75012;SDS011;63567;49.956;20.130;2023-10-19T00:00:03;7.43;;;3.85;;
75012;SDS011;63567;49.956;20.130;2023-10-19T00:02:44;9.02;;;3.95;;
75012;SDS011;63567;49.956;20.130;2023-10-19T00:05:11;7.00;;;3.88;;
75012;SDS011;63567;49.956;20.130;2023-10-19T00:07:37;6.60;;;3.92;;
75012;SDS011;63567;49.956;20.130;2023-10-19T00:10:03;6.30;;;3.73;;
75012;SDS011;63567;49.956;20.130;2023-10-19T00:12:29;7.53;;;3.67;;
75012;SDS011;63567;49.956;20.130;2023-10-19T00:14:54;6.93;;;4.00;;
75012;SDS011;63567;49.956;20.130;2023-10-19T00:17:19;5.73;;;3.53;;
75012;SDS011;63567;49.956;20.130;2023-10-19T00:19:46;6.65;;;3.70;;
75012;SDS011;63567;49.956;20.130;2023-10-19T00:22:43;7.40;;;3.88;;
75012;SDS011;63567;49.956;20.130;2023-10-19T00:25:09;5.78;;;3.75;;
75012;SDS011;63567;49.956;20.130;2023-10-19T00:27:38;6.20;;;3.90;;
75012;SDS011;63567;49.956;20.130;2023-10-19T00:30:04;7.53;;;4.05;;
75012;SDS011;63567;49.956;20.130;2023-10-19T00:32:33;7.05;;;4.13;;
75012;SDS011;63567;49.956;20.130;2023-10-19T00:35:03;8.05;;;4.18;;
75012;SDS011;63567;49.956;20.130;2023-10-19T00:37:35;7.45;;;4.30;;
75012;SDS011;63567;49.956;20.130;2023-10-19T00:40:07;6.70;;;4.22;;
75012;SDS011;63567;49.956;20.130;2023-10-19T00:42:58;6.43;;;3.83;;
75012;SDS011;63567;49.956;20.130;2023-10-19T00:45:24;7.63;;;4.28;;
75012;SDS011;63567;49.956;20.130;2023-10-19T00:47:51;6.65;;;3.78;;
75012;SDS011;63567;49.956;20.130;2023-10-19T00:50:18;7.32;;;3.58;;
75012;SDS011;63567;49.956;20.130;2023-10-19T00:52:47;6.50;;;3.40;;
75012;SDS011;63567;49.956;20.130;2023-10-19T00:55:15;7.13;;;3.97;;
75012;SDS011;63567;49.956;20.130;2023-10-19T00:57:41;6.22;;;3.72;;
75012;SDS011;63567;49.956;20.130;2023-10-19T01:00:11;8.77;;;3.50;;
75012;SDS011;63567;49.956;20.130;2023-10-19T01:02:46;6.40;;;3.78;;
75012;SDS011;63567;49.956;20.130;2023-10-19T01:05:11;5.63;;;3.30;;
75012;SDS011;63567;49.956;20.130;2023-10-19T01:07:39;6.45;;;3.70;;
75012;SDS011;63567;49.956;20.130;2023-10-19T01:12:44;6.63;;;3.88;;
75012;SDS011;63567;49.956;20.130;2023-10-19T01:15:11;4.97;;;3.13;;
75012;SDS011;63567;49.956;20.130;2023-10-19T01:17:46;5.80;;;3.63;;
75012;SDS011;63567;49.956;20.130;2023-10-19T01:20:17;6.53;;;3.78;;
75012;SDS011;63567;49.956;20.130;2023-10-19T01:22:57;6.72;;;3.60;;
75012;SDS011;63567;49.956;20.130;2023-10-19T01:28:07;5.85;;;3.58;;
75012;SDS011;63567;49.956;20.130;2023-10-19T01:30:34;7.80;;;3.95;;
75012;SDS011;63567;49.956;20.130;2023-10-19T01:33:01;5.95;;;3.65;;
75012;SDS011;63567;49.956;20.130;2023-10-19T01:35:27;5.95;;;3.65;;
75012;SDS011;63567;49.956;20.130;2023-10-19T01:38:12;6.70;;;3.65;;
75012;SDS011;63567;49.956;20.130;2023-10-19T01:40:37;6.10;;;3.70;;
75012;SDS011;63567;49.956;20.130;2023-10-19T01:43:11;7.22;;;4.20;;
75012;SDS011;63567;49.956;20.130;2023-10-19T01:45:44;6.18;;;3.58;;
75012;SDS011;63567;49.956;20.130;2023-10-19T01:48:10;5.93;;;3.57;;
75012;SDS011;63567;49.956;20.130;2023-10-19T01:50:38;6.82;;;3.92;;
75012;SDS011;63567;49.956;20.130;2023-10-19T01:53:04;6.20;;;3.70;;
75012;SDS011;63567;49.956;20.130;2023-10-19T01:55:40;5.60;;;3.47;;
75012;SDS011;63567;49.956;20.130;2023-10-19T01:58:05;7.03;;;3.90;;
75012;SDS011;63567;49.956;20.130;2023-10-19T02:00:30;6.60;;;3.70;;
75012;SDS011;63567;49.956;20.130;2023-10-19T02:02:55;5.17;;;3.47;;
75012;SDS011;63567;49.956;20.130;2023-10-19T02:05:21;6.17;;;3.70;;
75012;SDS011;63567;49.956;20.130;2023-10-19T02:07:47;6.25;;;3.28;;
75012;SDS011;63567;49.956;20.130;2023-10-19T02:10:12;6.45;;;3.50;;
75012;SDS011;63567;49.956;20.130;2023-10-19T02:12:39;5.93;;;3.57;;
75012;SDS011;63567;49.956;20.130;2023-10-19T02:15:07;5.88;;;3.45;;
75012;SDS011;63567;49.956;20.130;2023-10-19T02:17:33;5.68;;;3.17;;
75012;SDS011;63567;49.956;20.130;2023-10-19T02:19:59;5.80;;;3.50;;
75012;SDS011;63567;49.956;20.130;2023-10-19T02:22:24;5.77;;;3.33;;
75012;SDS011;63567;49.956;20.130;2023-10-19T02:24:49;6.47;;;3.93;;
75012;SDS011;63567;49.956;20.130;2023-10-19T02:27:15;5.77;;;3.33;;
75012;SDS011;63567;49.956;20.130;2023-10-19T02:29:40;6.73;;;3.27;;
75012;SDS011;63567;49.956;20.130;2023-10-19T02:32:06;6.28;;;3.42;;
75012;SDS011;63567;49.956;20.130;2023-10-19T02:34:32;5.95;;;3.45;;
75012;SDS011;63567;49.956;20.130;2023-10-19T02:36:57;5.32;;;3.33;;
75012;SDS011;63567;49.956;20.130;2023-10-19T02:39:23;6.67;;;3.90;;
75012;SDS011;63567;49.956;20.130;2023-10-19T02:41:53;7.15;;;3.50;;
75012;SDS011;63567;49.956;20.130;2023-10-19T02:44:20;5.95;;;3.50;;
75012;SDS011;63567;49.956;20.130;2023-10-19T02:46:48;4.88;;;3.47;;
75012;SDS011;63567;49.956;20.130;2023-10-19T02:49:19;5.80;;;3.10;;
75012;SDS011;63567;49.956;20.130;2023-10-19T02:51:46;6.57;;;2.90;;
75012;SDS011;63567;49.956;20.130;2023-10-19T02:54:12;5.75;;;2.90;;
75012;SDS011;63567;49.956;20.130;2023-10-19T02:56:44;5.15;;;3.10;;
75012;SDS011;63567;49.956;20.130;2023-10-19T02:59:14;6.78;;;3.58;;
75012;SDS011;63567;49.956;20.130;2023-10-19T03:01:41;4.60;;;2.67;;
75012;SDS011;63567;49.956;20.130;2023-10-19T03:04:09;4.82;;;3.30;;
75012;SDS011;63567;49.956;20.130;2023-10-19T03:06:37;4.82;;;3.00;;
75012;SDS011;63567;49.956;20.130;2023-10-19T03:09:04;4.78;;;2.67;;
75012;SDS011;63567;49.956;20.130;2023-10-19T03:11:38;4.40;;;2.60;;
75012;SDS011;63567;49.956;20.130;2023-10-19T03:14:05;5.53;;;2.95;;
75012;SDS011;63567;49.956;20.130;2023-10-19T03:16:31;5.93;;;3.15;;
75012;SDS011;63567;49.956;20.130;2023-10-19T03:18:56;4.50;;;2.80;;
75012;SDS011;63567;49.956;20.130;2023-10-19T03:21:22;4.27;;;2.50;;
75012;SDS011;63567;49.956;20.130;2023-10-19T03:23:52;5.15;;;2.90;;
75012;SDS011;63567;49.956;20.130;2023-10-19T03:26:21;5.15;;;2.85;;
75012;SDS011;63567;49.956;20.130;2023-10-19T03:28:55;5.40;;;3.03;;
75012;SDS011;63567;49.956;20.130;2023-10-19T03:31:24;4.63;;;3.05;;
75012;SDS011;63567;49.956;20.130;2023-10-19T03:33:50;4.68;;;2.53;;
75012;SDS011;63567;49.956;20.130;2023-10-19T03:36:20;5.60;;;2.95;;
75012;SDS011;63567;49.956;20.130;2023-10-19T03:38:46;5.18;;;2.65;;
75012;SDS011;63567;49.956;20.130;2023-10-19T03:41:11;4.97;;;2.90;;
75012;SDS011;63567;49.956;20.130;2023-10-19T03:43:37;5.65;;;2.70;;
75012;SDS011;63567;49.956;20.130;2023-10-19T03:46:05;5.68;;;3.20;;
75012;SDS011;63567;49.956;20.130;2023-10-19T03:49:10;5.97;;;3.30;;
75012;SDS011;63567;49.956;20.130;2023-10-19T03:51:38;6.47;;;3.30;;
75012;SDS011;63567;49.956;20.130;2023-10-19T03:54:27;4.78;;;3.30;;
75012;SDS011;63567;49.956;20.130;2023-10-19T03:56:53;5.60;;;3.33;;
75012;SDS011;63567;49.956;20.130;2023-10-19T03:59:26;4.85;;;2.92;;
75012;SDS011;63567;49.956;20.130;2023-10-19T04:04:21;5.20;;;3.10;;
75012;SDS011;63567;49.956;20.130;2023-10-19T04:06:46;5.57;;;3.10;;
75012;SDS011;63567;49.956;20.130;2023-10-19T04:09:13;4.32;;;2.67;;
75012;SDS011;63567;49.956;20.130;2023-10-19T04:11:42;4.63;;;2.90;;
75012;SDS011;63567;49.956;20.130;2023-10-19T04:14:13;5.25;;;3.33;;
75012;SDS011;63567;49.956;20.130;2023-10-19T04:16:40;6.03;;;2.95;;
75012;SDS011;63567;49.956;20.130;2023-10-19T04:19:08;4.90;;;3.00;;
75012;SDS011;63567;49.956;20.130;2023-10-19T04:21:34;6.78;;;3.15;;
75012;SDS011;63567;49.956;20.130;2023-10-19T04:24:03;5.85;;;2.88;;
75012;SDS011;63567;49.956;20.130;2023-10-19T04:26:29;5.97;;;3.28;;
75012;SDS011;63567;49.956;20.130;2023-10-19T04:29:01;5.65;;;3.50;;
75012;SDS011;63567;49.956;20.130;2023-10-19T04:31:34;5.88;;;3.30;;
75012;SDS011;63567;49.956;20.130;2023-10-19T04:34:02;7.82;;;3.40;;
75012;SDS011;63567;49.956;20.130;2023-10-19T04:36:32;6.65;;;3.75;;
75012;SDS011;63567;49.956;20.130;2023-10-19T04:38:58;8.15;;;3.38;;
75012;SDS011;63567;49.956;20.130;2023-10-19T04:41:24;5.47;;;3.33;;
75012;SDS011;63567;49.956;20.130;2023-10-19T04:43:52;5.82;;;3.13;;
75012;SDS011;63567;49.956;20.130;2023-10-19T04:46:17;6.80;;;3.47;;
75012;SDS011;63567;49.956;20.130;2023-10-19T04:48:43;6.00;;;3.33;;
75012;SDS011;63567;49.956;20.130;2023-10-19T04:51:09;5.47;;;3.13;;
75012;SDS011;63567;49.956;20.130;2023-10-19T04:53:35;6.00;;;3.15;;
75012;SDS011;63567;49.956;20.130;2023-10-19T04:56:02;5.15;;;2.85;;
75012;SDS011;63567;49.956;20.130;2023-10-19T04:58:28;5.68;;;3.25;;
75012;SDS011;63567;49.956;20.130;2023-10-19T05:00:54;4.55;;;2.75;;
75012;SDS011;63567;49.956;20.130;2023-10-19T05:03:20;5.00;;;2.78;;
75012;SDS011;63567;49.956;20.130;2023-10-19T05:05:46;6.03;;;3.20;;
75012;SDS011;63567;49.956;20.130;2023-10-19T05:08:12;5.43;;;2.80;;
75012;SDS011;63567;49.956;20.130;2023-10-19T05:10:37;5.72;;;2.80;;
75012;SDS011;63567;49.956;20.130;2023-10-19T05:13:03;9.03;;;3.40;;
75012;SDS011;63567;49.956;20.130;2023-10-19T05:15:29;6.00;;;2.88;;
75012;SDS011;63567;49.956;20.130;2023-10-19T05:17:54;4.80;;;2.70;;
75012;SDS011;63567;49.956;20.130;2023-10-19T05:20:20;5.57;;;3.20;;
75012;SDS011;63567;49.956;20.130;2023-10-19T05:22:46;5.68;;;2.72;;
75012;SDS011;63567;49.956;20.130;2023-10-19T05:25:11;4.53;;;2.80;;
75012;SDS011;63567;49.956;20.130;2023-10-19T05:27:37;4.87;;;2.83;;
75012;SDS011;63567;49.956;20.130;2023-10-19T05:30:03;5.20;;;3.33;;
75012;SDS011;63567;49.956;20.130;2023-10-19T05:32:29;5.22;;;3.00;;
75012;SDS011;63567;49.956;20.130;2023-10-19T05:34:55;4.88;;;3.00;;
75012;SDS011;63567;49.956;20.130;2023-10-19T05:37:21;4.45;;;2.60;;
75012;SDS011;63567;49.956;20.130;2023-10-19T05:39:47;4.07;;;2.50;;
75012;SDS011;63567;49.956;20.130;2023-10-19T05:42:12;4.20;;;2.50;;
75012;SDS011;63567;49.956;20.130;2023-10-19T05:44:37;4.17;;;2.90;;
75012;SDS011;63567;49.956;20.130;2023-10-19T05:47:03;7.50;;;3.50;;
75012;SDS011;63567;49.956;20.130;2023-10-19T05:49:28;6.97;;;3.35;;
75012;SDS011;63567;49.956;20.130;2023-10-19T05:51:53;6.00;;;3.53;;
75012;SDS011;63567;49.956;20.130;2023-10-19T05:54:19;4.67;;;3.10;;
75012;SDS011;63567;49.956;20.130;2023-10-19T05:56:44;6.37;;;3.30;;
75012;SDS011;63567;49.956;20.130;2023-10-19T05:59:10;6.65;;;3.22;;
75012;SDS011;63567;49.956;20.130;2023-10-19T06:01:36;4.63;;;3.28;;
75012;SDS011;63567;49.956;20.130;2023-10-19T06:04:02;5.95;;;3.15;;
75012;SDS011;63567;49.956;20.130;2023-10-19T06:06:28;6.00;;;3.38;;
75012;SDS011;63567;49.956;20.130;2023-10-19T06:08:53;6.83;;;3.13;;
75012;SDS011;63567;49.956;20.130;2023-10-19T06:11:19;5.32;;;3.25;;
75012;SDS011;63567;49.956;20.130;2023-10-19T06:13:45;5.82;;;3.28;;
75012;SDS011;63567;49.956;20.130;2023-10-19T06:16:11;5.85;;;3.53;;
75012;SDS011;63567;49.956;20.130;2023-10-19T06:18:36;7.07;;;3.60;;
75012;SDS011;63567;49.956;20.130;2023-10-19T06:21:01;5.47;;;3.07;;
75012;SDS011;63567;49.956;20.130;2023-10-19T06:23:28;5.53;;;3.15;;
75012;SDS011;63567;49.956;20.130;2023-10-19T06:25:53;6.20;;;3.27;;
75012;SDS011;63567;49.956;20.130;2023-10-19T06:28:18;6.07;;;3.60;;
75012;SDS011;63567;49.956;20.130;2023-10-19T06:30:44;6.38;;;3.92;;
75012;SDS011;63567;49.956;20.130;2023-10-19T06:33:10;6.40;;;3.85;;
75012;SDS011;63567;49.956;20.130;2023-10-19T06:35:35;7.38;;;4.28;;
75012;SDS011;63567;49.956;20.130;2023-10-19T06:38:02;7.10;;;4.25;;
75012;SDS011;63567;49.956;20.130;2023-10-19T06:40:33;6.18;;;4.20;;
75012;SDS011;63567;49.956;20.130;2023-10-19T06:43:01;6.57;;;3.70;;
75012;SDS011;63567;49.956;20.130;2023-10-19T06:45:27;7.10;;;4.07;;
75012;SDS011;63567;49.956;20.130;2023-10-19T06:47:55;6.97;;;3.95;;
75012;SDS011;63567;49.956;20.130;2023-10-19T06:50:20;6.05;;;3.90;;
75012;SDS011;63567;49.956;20.130;2023-10-19T06:52:47;8.18;;;4.30;;
75012;SDS011;63567;49.956;20.130;2023-10-19T06:55:13;7.22;;;4.07;;
75012;SDS011;63567;49.956;20.130;2023-10-19T06:57:41;7.32;;;4.32;;
75012;SDS011;63567;49.956;20.130;2023-10-19T07:00:11;8.93;;;5.43;;
75012;SDS011;63567;49.956;20.130;2023-10-19T07:02:47;8.73;;;4.82;;
75012;SDS011;63567;49.956;20.130;2023-10-19T07:05:13;12.43;;;6.38;;
75012;SDS011;63567;49.956;20.130;2023-10-19T07:10:09;12.73;;;6.95;;
75012;SDS011;63567;49.956;20.130;2023-10-19T07:12:37;13.10;;;7.90;;
75012;SDS011;63567;49.956;20.130;2023-10-19T07:15:07;12.40;;;7.45;;
75012;SDS011;63567;49.956;20.130;2023-10-19T07:17:36;14.07;;;7.50;;
75012;SDS011;63567;49.956;20.130;2023-10-19T07:20:05;10.80;;;7.25;;
75012;SDS011;63567;49.956;20.130;2023-10-19T07:22:31;10.40;;;6.47;;
75012;SDS011;63567;49.956;20.130;2023-10-19T07:24:57;10.18;;;6.30;;
75012;SDS011;63567;49.956;20.130;2023-10-19T07:27:23;9.57;;;5.67;;
75012;SDS011;63567;49.956;20.130;2023-10-19T07:29:50;8.70;;;5.35;;
75012;SDS011;63567;49.956;20.130;2023-10-19T07:32:15;7.93;;;5.03;;
75012;SDS011;63567;49.956;20.130;2023-10-19T07:34:42;8.77;;;4.70;;
75012;SDS011;63567;49.956;20.130;2023-10-19T07:37:09;9.18;;;4.60;;
75012;SDS011;63567;49.956;20.130;2023-10-19T07:39:40;5.80;;;4.00;;
75012;SDS011;63567;49.956;20.130;2023-10-19T07:44:36;4.88;;;3.33;;
75012;SDS011;63567;49.956;20.130;2023-10-19T07:47:01;5.55;;;3.20;;
75012;SDS011;63567;49.956;20.130;2023-10-19T07:49:26;5.30;;;3.67;;
75012;SDS011;63567;49.956;20.130;2023-10-19T07:51:52;4.77;;;3.60;;
75012;SDS011;63567;49.956;20.130;2023-10-19T07:54:17;6.33;;;4.03;;
75012;SDS011;63567;49.956;20.130;2023-10-19T07:56:42;5.60;;;3.70;;
75012;SDS011;63567;49.956;20.130;2023-10-19T07:59:08;6.22;;;3.80;;
75012;SDS011;63567;49.956;20.130;2023-10-19T08:01:34;7.97;;;4.47;;
75012;SDS011;63567;49.956;20.130;2023-10-19T08:03:59;6.05;;;3.90;;
75012;SDS011;63567;49.956;20.130;2023-10-19T08:06:25;6.88;;;4.18;;
75012;SDS011;63567;49.956;20.130;2023-10-19T08:08:51;6.07;;;3.85;;
75012;SDS011;63567;49.956;20.130;2023-10-19T08:11:16;5.10;;;3.70;;
75012;SDS011;63567;49.956;20.130;2023-10-19T08:13:42;6.70;;;4.00;;
75012;SDS011;63567;49.956;20.130;2023-10-19T08:16:07;7.38;;;4.45;;
75012;SDS011;63567;49.956;20.130;2023-10-19T08:18:33;6.85;;;4.22;;
75012;SDS011;63567;49.956;20.130;2023-10-19T08:21:00;7.55;;;4.93;;
75012;SDS011;63567;49.956;20.130;2023-10-19T08:23:26;6.40;;;4.47;;
75012;SDS011;63567;49.956;20.130;2023-10-19T08:25:52;6.32;;;4.32;;
75012;SDS011;63567;49.956;20.130;2023-10-19T08:28:18;7.28;;;4.35;;
75012;SDS011;63567;49.956;20.130;2023-10-19T08:30:44;7.50;;;4.63;;
75012;SDS011;63567;49.956;20.130;2023-10-19T08:33:21;7.20;;;4.90;;
75012;SDS011;63567;49.956;20.130;2023-10-19T08:35:47;8.20;;;5.25;;
75012;SDS011;63567;49.956;20.130;2023-10-19T08:38:12;8.57;;;5.83;;
75012;SDS011;63567;49.956;20.130;2023-10-19T08:40:37;8.13;;;5.40;;
75012;SDS011;63567;49.956;20.130;2023-10-19T08:43:03;10.07;;;6.47;;
75012;SDS011;63567;49.956;20.130;2023-10-19T08:45:29;9.75;;;6.70;;
75012;SDS011;63567;49.956;20.130;2023-10-19T08:47:56;13.93;;;8.00;;
75012;SDS011;63567;49.956;20.130;2023-10-19T08:50:25;12.27;;;8.77;;
75012;SDS011;63567;49.956;20.130;2023-10-19T08:52:56;11.82;;;8.30;;
75012;SDS011;63567;49.956;20.130;2023-10-19T08:55:23;10.32;;;7.72;;
75012;SDS011;63567;49.956;20.130;2023-10-19T08:57:48;13.13;;;7.82;;
75012;SDS011;63567;49.956;20.130;2023-10-19T09:00:15;11.13;;;7.55;;
75012;SDS011;63567;49.956;20.130;2023-10-19T09:02:43;10.73;;;7.65;;
75012;SDS011;63567;49.956;20.130;2023-10-19T09:05:08;11.27;;;8.00;;
75012;SDS011;63567;49.956;20.130;2023-10-19T09:07:34;10.02;;;7.68;;
75012;SDS011;63567;49.956;20.130;2023-10-19T09:10:00;11.82;;;8.35;;
75012;SDS011;63567;49.956;20.130;2023-10-19T09:12:26;10.90;;;8.20;;
75012;SDS011;63567;49.956;20.130;2023-10-19T09:14:52;11.57;;;8.23;;
75012;SDS011;63567;49.956;20.130;2023-10-19T09:17:18;11.68;;;8.60;;
75012;SDS011;63567;49.956;20.130;2023-10-19T09:19:53;14.07;;;8.65;;
75012;SDS011;63567;49.956;20.130;2023-10-19T09:22:19;13.80;;;8.75;;
75012;SDS011;63567;49.956;20.130;2023-10-19T09:24:50;12.00;;;8.57;;
75012;SDS011;63567;49.956;20.130;2023-10-19T09:27:18;14.43;;;8.40;;
75012;SDS011;63567;49.956;20.130;2023-10-19T09:29:45;12.60;;;9.30;;
75012;SDS011;63567;49.956;20.130;2023-10-19T09:32:11;14.93;;;9.48;;
75012;SDS011;63567;49.956;20.130;2023-10-19T09:34:40;14.30;;;9.18;;
75012;SDS011;63567;49.956;20.130;2023-10-19T09:37:08;13.75;;;8.10;;
75012;SDS011;63567;49.956;20.130;2023-10-19T09:39:35;13.85;;;9.23;;
75012;SDS011;63567;49.956;20.130;2023-10-19T09:42:07;12.70;;;8.63;;
75012;SDS011;63567;49.956;20.130;2023-10-19T09:44:42;12.60;;;8.60;;
75012;SDS011;63567;49.956;20.130;2023-10-19T09:47:13;12.50;;;8.38;;
75012;SDS011;63567;49.956;20.130;2023-10-19T09:49:45;12.88;;;8.38;;
75012;SDS011;63567;49.956;20.130;2023-10-19T09:52:11;11.23;;;8.17;;
75012;SDS011;63567;49.956;20.130;2023-10-19T09:54:48;11.35;;;8.35;;
75012;SDS011;63567;49.956;20.130;2023-10-19T09:57:22;13.00;;;8.60;;
75012;SDS011;63567;49.956;20.130;2023-10-19T09:59:59;11.57;;;8.32;;
75012;SDS011;63567;49.956;20.130;2023-10-19T10:02:42;11.43;;;9.10;;
75012;SDS011;63567;49.956;20.130;2023-10-19T10:10:41;14.07;;;9.43;;
75012;SDS011;63567;49.956;20.130;2023-10-19T10:15:55;13.15;;;8.45;;
75012;SDS011;63567;49.956;20.130;2023-10-19T10:18:25;13.02;;;8.98;;
75012;SDS011;63567;49.956;20.130;2023-10-19T10:21:07;12.35;;;8.82;;
75012;SDS011;63567;49.956;20.130;2023-10-19T10:23:40;15.38;;;9.43;;
75012;SDS011;63567;49.956;20.130;2023-10-19T10:26:25;13.48;;;9.23;;
75012;SDS011;63567;49.956;20.130;2023-10-19T10:31:59;13.75;;;9.27;;
75012;SDS011;63567;49.956;20.130;2023-10-19T10:37:05;16.55;;;9.32;;
75012;SDS011;63567;49.956;20.130;2023-10-19T10:39:33;12.90;;;8.85;;
75012;SDS011;63567;49.956;20.130;2023-10-19T10:42:06;11.45;;;8.98;;
75012;SDS011;63567;49.956;20.130;2023-10-19T10:44:39;14.13;;;9.52;;
75012;SDS011;63567;49.956;20.130;2023-10-19T10:49:57;13.25;;;9.45;;
75012;SDS011;63567;49.956;20.130;2023-10-19T10:54:57;13.55;;;9.90;;
75012;SDS011;63567;49.956;20.130;2023-10-19T10:57:24;14.25;;;10.15;;
75012;SDS011;63567;49.956;20.130;2023-10-19T11:02:29;26.52;;;13.32;;
75012;SDS011;63567;49.956;20.130;2023-10-19T11:04:55;30.20;;;14.20;;
75012;SDS011;63567;49.956;20.130;2023-10-19T11:07:20;17.97;;;10.93;;
75012;SDS011;63567;49.956;20.130;2023-10-19T11:09:46;14.43;;;9.85;;
75012;SDS011;63567;49.956;20.130;2023-10-19T11:12:12;15.20;;;9.20;;
75012;SDS011;63567;49.956;20.130;2023-10-19T11:14:54;12.30;;;8.50;;
75012;SDS011;63567;49.956;20.130;2023-10-19T11:17:24;12.75;;;8.27;;
75012;SDS011;63567;49.956;20.130;2023-10-19T11:19:55;10.93;;;8.13;;
75012;SDS011;63567;49.956;20.130;2023-10-19T11:22:21;12.15;;;7.80;;
75012;SDS011;63567;49.956;20.130;2023-10-19T11:24:49;12.57;;;8.15;;
75012;SDS011;63567;49.956;20.130;2023-10-19T11:27:21;12.68;;;8.15;;
75012;SDS011;63567;49.956;20.130;2023-10-19T11:29:56;11.50;;;8.07;;
75012;SDS011;63567;49.956;20.130;2023-10-19T11:32:23;10.73;;;7.47;;
75012;SDS011;63567;49.956;20.130;2023-10-19T11:34:50;12.55;;;7.88;;
75012;SDS011;63567;49.956;20.130;2023-10-19T11:37:15;10.65;;;8.18;;
75012;SDS011;63567;49.956;20.130;2023-10-19T11:39:41;9.88;;;8.27;;
75012;SDS011;63567;49.956;20.130;2023-10-19T11:42:07;9.70;;;7.55;;
75012;SDS011;63567;49.956;20.130;2023-10-19T11:44:32;11.47;;;8.20;;
75012;SDS011;63567;49.956;20.130;2023-10-19T11:46:57;11.68;;;8.68;;
75012;SDS011;63567;49.956;20.130;2023-10-19T11:49:23;10.13;;;8.00;;
75012;SDS011;63567;49.956;20.130;2023-10-19T11:51:48;10.98;;;8.23;;
75012;SDS011;63567;49.956;20.130;2023-10-19T11:54:13;11.60;;;8.50;;
75012;SDS011;63567;49.956;20.130;2023-10-19T11:56:39;11.47;;;7.73;;
75012;SDS011;63567;49.956;20.130;2023-10-19T11:59:04;11.60;;;7.87;;
75012;SDS011;63567;49.956;20.130;2023-10-19T12:01:29;11.57;;;8.40;;
75012;SDS011;63567;49.956;20.130;2023-10-19T12:03:54;12.00;;;8.50;;
75012;SDS011;63567;49.956;20.130;2023-10-19T12:06:20;11.87;;;8.43;;
75012;SDS011;63567;49.956;20.130;2023-10-19T12:08:48;11.10;;;8.35;;
75012;SDS011;63567;49.956;20.130;2023-10-19T12:11:14;12.90;;;8.63;;
75012;SDS011;63567;49.956;20.130;2023-10-19T12:13:44;10.82;;;7.75;;
75012;SDS011;63567;49.956;20.130;2023-10-19T12:16:13;11.30;;;8.65;;
75012;SDS011;63567;49.956;20.130;2023-10-19T12:18:40;11.45;;;8.50;;
75012;SDS011;63567;49.956;20.130;2023-10-19T12:21:07;10.80;;;8.35;;
75012;SDS011;63567;49.956;20.130;2023-10-19T12:26:02;11.57;;;8.88;;
75012;SDS011;63567;49.956;20.130;2023-10-19T12:28:28;12.75;;;9.00;;
75012;SDS011;63567;49.956;20.130;2023-10-19T12:30:54;12.73;;;9.10;;
75012;SDS011;63567;49.956;20.130;2023-10-19T12:33:21;13.00;;;9.93;;
75012;SDS011;63567;49.956;20.130;2023-10-19T12:35:46;15.00;;;10.03;;
75012;SDS011;63567;49.956;20.130;2023-10-19T12:38:16;12.70;;;9.73;;
75012;SDS011;63567;49.956;20.130;2023-10-19T12:40:46;12.93;;;9.60;;
75012;SDS011;63567;49.956;20.130;2023-10-19T12:43:13;12.50;;;8.48;;
75012;SDS011;63567;49.956;20.130;2023-10-19T12:45:39;13.10;;;9.43;;
75012;SDS011;63567;49.956;20.130;2023-10-19T12:48:05;11.80;;;9.23;;
75012;SDS011;63567;49.956;20.130;2023-10-19T12:50:31;12.23;;;8.82;;
75012;SDS011;63567;49.956;20.130;2023-10-19T12:52:59;13.23;;;9.32;;
75012;SDS011;63567;49.956;20.130;2023-10-19T12:55:25;13.73;;;10.48;;
75012;SDS011;63567;49.956;20.130;2023-10-19T12:57:52;16.60;;;11.23;;
75012;SDS011;63567;49.956;20.130;2023-10-19T13:00:17;17.63;;;12.40;;
75012;SDS011;63567;49.956;20.130;2023-10-19T13:02:50;21.67;;;13.18;;
75012;SDS011;63567;49.956;20.130;2023-10-19T13:05:16;17.83;;;12.43;;
75012;SDS011;63567;49.956;20.130;2023-10-19T13:07:43;20.17;;;13.88;;
75012;SDS011;63567;49.956;20.130;2023-10-19T13:10:12;18.88;;;13.18;;
75012;SDS011;63567;49.956;20.130;2023-10-19T13:12:37;22.98;;;15.30;;
75012;SDS011;63567;49.956;20.130;2023-10-19T13:15:03;22.50;;;15.82;;
75012;SDS011;63567;49.956;20.130;2023-10-19T13:17:36;25.50;;;17.10;;
75012;SDS011;63567;49.956;20.130;2023-10-19T13:20:02;21.52;;;15.77;;
75012;SDS011;63567;49.956;20.130;2023-10-19T13:22:40;20.02;;;14.73;;
75012;SDS011;63567;49.956;20.130;2023-10-19T13:25:06;20.70;;;14.98;;
75012;SDS011;63567;49.956;20.130;2023-10-19T13:27:34;20.50;;;14.43;;
75012;SDS011;63567;49.956;20.130;2023-10-19T13:29:59;21.07;;;14.97;;
75012;SDS011;63567;49.956;20.130;2023-10-19T13:32:28;19.63;;;14.00;;
75012;SDS011;63567;49.956;20.130;2023-10-19T13:34:53;19.58;;;14.02;;
75012;SDS011;63567;49.956;20.130;2023-10-19T13:37:19;20.93;;;15.03;;
75012;SDS011;63567;49.956;20.130;2023-10-19T13:39:44;19.87;;;13.87;;
75012;SDS011;63567;49.956;20.130;2023-10-19T13:42:09;19.85;;;14.23;;
75012;SDS011;63567;49.956;20.130;2023-10-19T13:44:35;20.88;;;13.43;;
75012;SDS011;63567;49.956;20.130;2023-10-19T13:47:00;19.05;;;13.20;;
75012;SDS011;63567;49.956;20.130;2023-10-19T13:49:29;17.38;;;12.40;;
75012;SDS011;63567;49.956;20.130;2023-10-19T13:51:55;17.52;;;12.88;;
75012;SDS011;63567;49.956;20.130;2023-10-19T13:54:20;16.83;;;11.93;;
75012;SDS011;63567;49.956;20.130;2023-10-19T13:56:45;17.50;;;13.33;;
75012;SDS011;63567;49.956;20.130;2023-10-19T13:59:11;20.20;;;13.68;;
75012;SDS011;63567;49.956;20.130;2023-10-19T14:01:37;15.73;;;12.10;;
75012;SDS011;63567;49.956;20.130;2023-10-19T14:04:03;18.43;;;13.40;;
75012;SDS011;63567;49.956;20.130;2023-10-19T14:06:28;20.85;;;14.20;;
75012;SDS011;63567;49.956;20.130;2023-10-19T14:08:53;21.15;;;14.45;;
75012;SDS011;63567;49.956;20.130;2023-10-19T14:11:19;22.40;;;14.60;;
75012;SDS011;63567;49.956;20.130;2023-10-19T14:13:46;20.67;;;13.68;;
75012;SDS011;63567;49.956;20.130;2023-10-19T14:16:12;17.73;;;13.30;;
75012;SDS011;63567;49.956;20.130;2023-10-19T14:18:37;17.00;;;12.70;;
75012;SDS011;63567;49.956;20.130;2023-10-19T14:21:15;17.53;;;13.27;;
75012;SDS011;63567;49.956;20.130;2023-10-19T14:23:41;18.20;;;12.73;;
75012;SDS011;63567;49.956;20.130;2023-10-19T14:26:08;17.65;;;12.63;;
75012;SDS011;63567;49.956;20.130;2023-10-19T14:28:34;16.42;;;12.68;;
75012;SDS011;63567;49.956;20.130;2023-10-19T14:31:00;16.38;;;12.27;;
75012;SDS011;63567;49.956;20.130;2023-10-19T14:33:27;16.30;;;12.07;;
75012;SDS011;63567;49.956;20.130;2023-10-19T14:35:52;17.77;;;12.37;;
75012;SDS011;63567;49.956;20.130;2023-10-19T14:38:17;15.47;;;11.80;;
75012;SDS011;63567;49.956;20.130;2023-10-19T14:40:44;14.15;;;11.77;;
75012;SDS011;63567;49.956;20.130;2023-10-19T14:43:13;15.73;;;11.27;;
75012;SDS011;63567;49.956;20.130;2023-10-19T14:45:40;15.15;;;11.10;;
75012;SDS011;63567;49.956;20.130;2023-10-19T14:48:06;15.88;;;11.27;;
75012;SDS011;63567;49.956;20.130;2023-10-19T14:50:35;13.40;;;10.05;;
75012;SDS011;63567;49.956;20.130;2023-10-19T14:53:00;14.53;;;10.73;;
75012;SDS011;63567;49.956;20.130;2023-10-19T14:55:26;13.17;;;9.80;;
75012;SDS011;63567;49.956;20.130;2023-10-19T14:57:52;14.18;;;9.95;;
75012;SDS011;63567;49.956;20.130;2023-10-19T15:00:19;12.05;;;9.23;;
75012;SDS011;63567;49.956;20.130;2023-10-19T15:03:06;12.10;;;9.50;;
75012;SDS011;63567;49.956;20.130;2023-10-19T15:05:33;12.15;;;9.05;;